createdAt,value
2023-01-17T07:08:21.255Z,6.51
2023-01-17T07:10:24.261Z,6.82
2023-01-17T07:12:26.969Z,7.00
2023-01-17T07:14:30.063Z,7.19
2023-01-17T07:16:32.882Z,7.35
2023-01-17T07:18:36.014Z,7.49
2023-01-17T07:20:39.090Z,7.59
2023-01-17T07:22:45.875Z,7.62
2023-01-17T07:24:49.874Z,7.67
2023-01-17T07:26:52.968Z,7.76
2023-01-17T07:28:55.731Z,7.82
2023-01-17T07:30:58.547Z,7.87
2023-01-17T07:33:02.421Z,7.86
2023-01-17T07:35:06.265Z,7.86
2023-01-17T07:37:09.070Z,7.90
2023-01-17T07:39:12.023Z,7.91
2023-01-17T07:41:16.084Z,7.92
2023-01-17T07:43:18.707Z,7.95
2023-01-17T07:45:21.920Z,7.98
2023-01-17T07:47:24.900Z,8.01
2023-01-17T07:49:27.544Z,8.04
2023-01-17T07:51:30.513Z,8.06
2023-01-17T07:53:33.547Z,8.09
2023-01-17T07:55:36.287Z,8.10
2023-01-17T07:57:40.642Z,8.10
2023-01-17T07:59:43.359Z,8.11
2023-01-17T08:01:46.449Z,8.09
2023-01-17T08:03:54.820Z,8.07
2023-01-17T08:05:58.104Z,8.00
2023-01-17T08:08:05.549Z,7.98
2023-01-17T08:10:12.922Z,7.98
2023-01-17T08:12:17.395Z,8.00
2023-01-17T08:14:21.404Z,8.02
2023-01-17T08:16:24.600Z,8.03
2023-01-17T08:18:27.493Z,8.02
2023-01-17T08:20:30.343Z,8.05
2023-01-17T08:22:33.566Z,8.05
2023-01-17T08:24:37.443Z,8.02
2023-01-17T08:26:40.570Z,7.96
2023-01-17T08:28:43.533Z,7.92
2023-01-17T08:30:47.645Z,7.93
2023-01-17T08:32:50.623Z,7.86
2023-01-17T08:34:53.425Z,7.88
2023-01-17T08:36:56.231Z,7.87
2023-01-17T08:38:59.018Z,7.89
2023-01-17T08:41:02.671Z,7.85
2023-01-17T08:43:05.453Z,7.86
2023-01-17T08:45:09.983Z,7.91
2023-01-17T08:47:14.184Z,7.92
2023-01-17T08:49:16.951Z,7.91
2023-01-17T08:51:19.722Z,7.94
2023-01-17T08:53:23.274Z,7.97
2023-01-17T08:55:26.559Z,7.98
2023-01-17T08:57:29.363Z,7.94
2023-01-17T08:59:32.319Z,7.91
2023-01-17T09:01:41.651Z,7.86
2023-01-17T09:03:46.913Z,7.78
2023-01-17T09:05:49.727Z,7.77
2023-01-17T09:07:52.544Z,7.77
2023-01-17T09:09:55.395Z,7.80
2023-01-17T09:11:58.475Z,7.80
2023-01-17T09:14:01.862Z,7.83
2023-01-17T09:16:06.079Z,7.85
2023-01-17T09:18:08.785Z,7.88
2023-01-17T09:20:14.003Z,7.84
2023-01-17T09:22:16.861Z,7.83
2023-01-17T09:24:20.054Z,7.83
2023-01-17T09:26:25.741Z,7.86
2023-01-17T09:28:29.234Z,7.87
2023-01-17T09:30:32.143Z,7.91
2023-01-17T09:32:35.275Z,7.95
2023-01-17T09:34:38.198Z,7.92
2023-01-17T09:36:43.879Z,7.84
2023-01-17T09:38:46.627Z,7.81
2023-01-17T09:40:49.867Z,7.86
2023-01-17T09:42:58.034Z,7.88
2023-01-17T09:45:01.079Z,7.93
2023-01-17T09:47:13.164Z,7.95
2023-01-17T09:49:27.663Z,7.97
2023-01-17T09:51:30.646Z,8.03
2023-01-17T09:53:37.493Z,8.00
2023-01-17T09:55:44.830Z,7.99
2023-01-17T09:58:00.203Z,7.97
2023-01-17T10:00:12.538Z,7.94
2023-01-17T10:02:42.229Z,7.90
2023-01-17T10:05:03.869Z,7.80
2023-01-17T10:07:18.973Z,7.72
2023-01-17T10:09:45.580Z,7.69
2023-01-17T10:12:03.036Z,7.58
2023-01-17T10:14:25.300Z,7.55
2023-01-17T10:16:38.823Z,7.54
2023-01-17T10:19:12.911Z,7.58
2023-01-17T10:21:23.005Z,7.68
2023-01-17T10:23:44.483Z,7.70
2023-01-17T10:25:50.090Z,7.63
2023-01-17T10:27:58.782Z,7.57
2023-01-17T10:30:04.841Z,7.55
2023-01-17T10:32:11.618Z,7.54
2023-01-17T10:34:18.193Z,7.63
2023-01-17T10:36:23.672Z,7.69
2023-01-17T10:38:31.891Z,7.76
2023-01-17T10:40:42.170Z,7.79
2023-01-17T10:42:55.466Z,7.81
2023-01-17T10:45:06.378Z,7.86
2023-01-17T10:47:19.187Z,7.90
2023-01-17T10:49:24.792Z,7.92
2023-01-17T10:51:43.909Z,7.93
2023-01-17T10:54:03.776Z,7.96
2023-01-17T10:56:07.845Z,7.89
2023-01-17T10:58:13.533Z,7.89
2023-01-17T11:00:29.657Z,7.94
2023-01-17T11:02:39.857Z,7.96
2023-01-17T11:04:47.347Z,7.91
2023-01-17T11:07:12.131Z,7.92
2023-01-17T11:09:15.733Z,7.97
2023-01-17T11:11:19.500Z,8.00
2023-01-17T11:13:29.181Z,7.99
2023-01-17T11:15:34.327Z,7.98
2023-01-17T11:17:39.011Z,7.92
2023-01-17T11:19:45.427Z,7.85
2023-01-17T11:21:53.237Z,7.82
2023-01-17T11:23:57.406Z,7.87
2023-01-17T11:26:03.558Z,7.88
2023-01-17T11:28:08.880Z,7.93
2023-01-17T11:30:18.776Z,7.94
2023-01-17T11:32:32.821Z,7.93
2023-01-17T11:34:35.583Z,7.94
2023-01-17T11:36:38.332Z,7.95
2023-01-17T11:38:41.583Z,7.88
2023-01-17T11:40:45.649Z,7.86
2023-01-17T11:43:00.337Z,7.84
2023-01-17T11:45:25.662Z,7.83
2023-01-17T11:47:28.497Z,7.81
2023-01-17T11:49:31.185Z,7.82
2023-01-17T11:51:41.329Z,7.80
2023-01-17T11:53:48.015Z,7.79
2023-01-17T11:56:05.371Z,7.76
2023-01-17T11:58:15.458Z,7.75
2023-01-17T12:00:23.497Z,7.77
2023-01-17T12:03:05.382Z,7.77
2023-01-17T12:05:29.012Z,7.75
2023-01-17T12:07:44.124Z,7.75
2023-01-17T12:09:58.063Z,7.72
2023-01-17T12:12:30.057Z,7.70
2023-01-17T12:14:44.163Z,7.63
2023-01-17T12:17:01.854Z,7.61
2023-01-17T12:19:28.701Z,7.58
2023-01-17T12:21:42.510Z,7.56
2023-01-17T12:24:17.224Z,7.59
2023-01-17T12:26:33.620Z,7.61
2023-01-17T12:28:59.387Z,7.58
2023-01-17T12:31:14.421Z,7.58
2023-01-17T12:33:25.113Z,7.55
2023-01-17T12:35:38.557Z,7.54
2023-01-17T12:37:45.162Z,7.57
2023-01-17T12:39:57.948Z,7.56
2023-01-17T12:42:06.886Z,7.58
2023-01-17T12:44:15.547Z,7.59
2023-01-17T12:46:23.961Z,7.54
2023-01-17T12:48:33.922Z,7.50
2023-01-17T12:50:43.380Z,7.50
2023-01-17T12:52:54.047Z,7.47
2023-01-17T12:55:03.132Z,7.44
2023-01-17T12:57:14.131Z,7.43
2023-01-17T12:59:23.097Z,7.44
2023-01-17T13:01:30.729Z,7.44
2023-01-17T13:03:47.282Z,7.43
2023-01-17T13:05:53.275Z,7.42
2023-01-17T13:08:02.106Z,7.43
2023-01-17T13:10:18.870Z,7.45
2023-01-17T13:12:23.733Z,7.45
2023-01-17T13:14:27.844Z,7.48
2023-01-17T13:16:35.139Z,7.47
2023-01-17T13:18:46.213Z,7.46
2023-01-17T13:21:04.892Z,7.47
2023-01-17T13:23:16.611Z,7.47
2023-01-17T13:25:38.044Z,7.49
2023-01-17T13:28:02.865Z,7.49
2023-01-17T13:30:24.767Z,7.50
2023-01-17T13:32:52.485Z,7.44
2023-01-17T13:35:15.071Z,7.36
2023-01-17T13:37:44.866Z,7.30
2023-01-17T13:40:06.368Z,7.28
2023-01-17T13:42:13.833Z,7.29
2023-01-17T13:44:22.920Z,7.32
2023-01-17T13:46:25.662Z,7.30
2023-01-17T13:48:33.282Z,7.33
2023-01-17T13:50:52.955Z,7.28
2023-01-17T13:52:58.045Z,7.20
2023-01-17T13:55:02.570Z,7.12
2023-01-17T13:57:40.078Z,7.16
2023-01-17T13:59:42.749Z,7.18
2023-01-17T14:02:03.384Z,7.17
2023-01-17T14:04:08.555Z,7.22
2023-01-17T14:06:30.447Z,7.22
2023-01-17T14:08:38.706Z,7.30
2023-01-17T14:10:45.101Z,7.38
2023-01-17T14:12:47.936Z,7.42
2023-01-17T14:14:55.783Z,7.45
2023-01-17T14:17:28.053Z,7.48
2023-01-17T14:19:30.997Z,7.54
2023-01-17T14:21:35.487Z,7.58
2023-01-17T14:23:57.460Z,7.62
2023-01-17T14:26:13.130Z,7.63
2023-01-17T14:28:24.029Z,7.62
2023-01-17T14:30:29.040Z,7.63
2023-01-17T14:32:33.984Z,7.65
2023-01-17T14:34:38.055Z,7.69
2023-01-17T14:36:41.042Z,7.70
2023-01-17T14:38:46.091Z,7.76
2023-01-17T14:40:55.117Z,7.79
2023-01-17T14:43:02.348Z,7.80
2023-01-17T14:45:12.728Z,7.82
2023-01-17T14:47:17.071Z,7.82
2023-01-17T14:49:24.092Z,7.79
2023-01-17T14:51:26.908Z,7.80
2023-01-17T14:53:33.930Z,7.83
2023-01-17T14:55:37.076Z,7.80
2023-01-17T14:57:43.390Z,7.75
2023-01-17T14:59:48.526Z,7.76
2023-01-17T15:02:07.164Z,7.77
2023-01-17T15:04:27.521Z,7.78
2023-01-17T15:06:38.212Z,7.77
2023-01-17T15:08:41.541Z,7.74
2023-01-17T15:10:51.571Z,7.70
2023-01-17T15:12:57.659Z,7.72
2023-01-17T15:15:02.673Z,7.76
2023-01-17T15:17:12.818Z,7.75
2023-01-17T15:19:19.932Z,7.77
2023-01-17T15:21:26.438Z,7.78
2023-01-17T15:23:34.493Z,7.76
2023-01-17T15:25:38.674Z,7.75
2023-01-17T15:27:50.842Z,7.70
2023-01-17T15:29:59.044Z,7.68
2023-01-17T15:32:03.809Z,7.67
2023-01-17T15:34:07.838Z,7.65
2023-01-17T15:36:24.809Z,7.62
2023-01-17T15:38:28.914Z,7.55
2023-01-17T15:40:37.716Z,7.49
2023-01-17T15:42:44.037Z,7.49
2023-01-17T15:44:49.375Z,7.50
2023-01-17T15:46:54.267Z,7.51
2023-01-17T15:49:13.040Z,7.54
2023-01-17T15:51:31.958Z,7.49
2023-01-17T15:53:37.238Z,7.42
2023-01-17T15:55:43.132Z,7.40
2023-01-17T15:57:47.431Z,7.37
2023-01-17T15:59:59.567Z,7.31
2023-01-17T16:02:03.863Z,7.29
2023-01-17T16:04:30.224Z,7.25
2023-01-17T16:06:45.441Z,7.24
2023-01-17T16:08:53.520Z,7.26
2023-01-17T16:11:01.677Z,7.24
2023-01-17T16:13:05.888Z,7.22
2023-01-17T16:15:13.480Z,7.29
2023-01-17T16:17:19.449Z,7.37
2023-01-17T16:19:27.010Z,7.39
2023-01-17T16:21:31.994Z,7.46
2023-01-17T16:23:34.668Z,7.50
2023-01-17T16:25:38.510Z,7.55
2023-01-17T16:27:43.067Z,7.56
2023-01-17T16:29:47.166Z,7.58
2023-01-17T16:31:49.940Z,7.62
2023-01-17T16:33:53.987Z,7.62
2023-01-17T16:35:56.908Z,7.63
2023-01-17T16:38:01.036Z,7.65
2023-01-17T16:40:04.023Z,7.69
2023-01-17T16:42:06.852Z,7.72
2023-01-17T16:44:15.127Z,7.75
2023-01-17T16:46:21.682Z,7.72
2023-01-17T16:48:24.420Z,7.70
2023-01-17T16:50:51.928Z,7.71
2023-01-17T16:52:56.137Z,7.70
2023-01-17T16:54:58.942Z,7.65
2023-01-17T16:57:01.572Z,7.63
2023-01-17T16:59:04.298Z,7.61
2023-01-17T17:01:12.653Z,7.61
2023-01-17T17:03:16.872Z,7.62
2023-01-17T17:05:20.226Z,7.65
2023-01-17T17:07:24.281Z,7.67
2023-01-17T17:09:27.072Z,7.69
2023-01-17T17:11:29.726Z,7.67
2023-01-17T17:13:35.551Z,7.63
2023-01-17T17:15:41.998Z,7.59
2023-01-17T17:17:44.864Z,7.57
2023-01-17T17:19:48.432Z,7.61
2023-01-17T17:21:51.512Z,7.61
2023-01-17T17:23:57.969Z,7.62
2023-01-17T17:26:00.792Z,7.59
2023-01-17T17:28:03.727Z,7.62
2023-01-17T17:30:07.327Z,7.63
2023-01-17T17:32:11.472Z,7.65
2023-01-17T17:34:15.637Z,7.66
2023-01-17T17:36:18.676Z,7.68
2023-01-17T17:38:21.480Z,7.65
2023-01-17T17:40:26.255Z,7.61
2023-01-17T17:42:28.924Z,7.60
2023-01-17T17:44:31.588Z,7.62
2023-01-17T17:46:39.875Z,7.64
2023-01-17T17:48:42.621Z,7.66
2023-01-17T17:50:45.291Z,7.69
2023-01-17T17:52:49.247Z,7.71
2023-01-17T17:54:52.384Z,7.74
2023-01-17T17:56:56.407Z,7.79
2023-01-17T17:58:59.669Z,7.79
2023-01-17T18:01:07.229Z,7.78
2023-01-17T18:03:09.938Z,7.70
2023-01-17T18:05:12.744Z,7.69
2023-01-17T18:07:15.460Z,7.71
2023-01-17T18:09:18.599Z,7.71
2023-01-17T18:11:23.751Z,7.75
2023-01-17T18:13:27.904Z,7.77
2023-01-17T18:15:30.536Z,7.80
2023-01-17T18:17:33.317Z,7.80
2023-01-17T18:19:36.135Z,7.83
2023-01-17T18:21:39.744Z,7.83
2023-01-17T18:23:44.649Z,7.87
2023-01-17T18:25:47.398Z,7.91
2023-01-17T18:27:50.342Z,7.93
2023-01-17T18:29:54.355Z,7.97
2023-01-17T18:31:57.241Z,7.97
2023-01-17T18:34:05.320Z,7.97
2023-01-17T18:36:10.303Z,7.99
2023-01-17T18:38:13.105Z,7.99
2023-01-17T18:40:16.281Z,8.03
2023-01-17T18:42:19.052Z,8.05
2023-01-17T18:44:22.668Z,8.07
2023-01-17T18:46:27.632Z,8.08
2023-01-17T18:48:30.794Z,8.10
2023-01-17T18:50:33.535Z,8.13
2023-01-17T18:52:37.075Z,8.11
2023-01-17T18:54:39.785Z,8.11
2023-01-17T18:56:42.871Z,8.14
2023-01-17T18:58:48.290Z,8.17
2023-01-17T19:00:51.372Z,8.20
2023-01-17T19:02:55.394Z,8.25
2023-01-17T19:04:58.048Z,8.29
2023-01-17T19:07:00.664Z,8.33
2023-01-17T19:09:03.570Z,8.36
2023-01-17T19:11:06.650Z,8.39
2023-01-17T19:13:09.294Z,8.40
2023-01-17T19:15:12.353Z,8.41
2023-01-17T19:17:15.026Z,8.43
2023-01-17T19:19:19.134Z,8.47
2023-01-17T19:21:23.765Z,8.46
2023-01-17T19:23:26.441Z,8.49
2023-01-17T19:25:30.179Z,8.50
2023-01-17T19:27:32.962Z,8.50
2023-01-17T19:29:35.641Z,8.49
2023-01-17T19:31:42.387Z,8.48
2023-01-17T19:33:46.933Z,8.46
2023-01-17T19:35:51.075Z,8.44
2023-01-17T19:37:56.022Z,8.44
2023-01-17T19:39:58.818Z,8.46
2023-01-17T19:42:01.459Z,8.45
2023-01-17T19:44:06.360Z,8.43
2023-01-17T19:46:10.037Z,8.42
2023-01-17T19:48:14.409Z,8.42
2023-01-17T19:50:18.725Z,8.41
2023-01-17T19:52:24.067Z,8.40
2023-01-17T19:54:26.786Z,8.42
2023-01-17T19:56:30.691Z,8.45
2023-01-17T19:58:33.426Z,8.44
2023-01-17T20:00:45.867Z,8.44
2023-01-17T20:02:50.252Z,8.44
2023-01-17T20:04:52.922Z,8.43
2023-01-17T20:06:55.779Z,8.43
2023-01-17T20:09:00.257Z,8.42
2023-01-17T20:11:03.903Z,8.43
2023-01-17T20:13:06.921Z,8.39
2023-01-17T20:15:11.523Z,8.39
2023-01-17T20:17:14.327Z,8.38
2023-01-17T20:19:17.104Z,8.36
2023-01-17T20:21:24.251Z,8.37
2023-01-17T20:23:27.032Z,8.35
2023-01-17T20:25:31.237Z,8.29
2023-01-17T20:27:34.738Z,8.30
2023-01-17T20:29:40.539Z,8.31
2023-01-17T20:31:44.382Z,8.35
2023-01-17T20:33:50.549Z,8.36
2023-01-17T20:36:08.747Z,8.38
2023-01-17T20:38:12.731Z,8.40
2023-01-17T20:40:17.420Z,8.42
2023-01-17T20:42:21.557Z,8.43
2023-01-17T20:44:24.433Z,8.41
2023-01-17T20:46:29.707Z,8.43
2023-01-17T20:48:32.361Z,8.44
2023-01-17T20:50:36.842Z,8.44
2023-01-17T20:52:40.118Z,8.43
2023-01-17T20:54:43.410Z,8.44
2023-01-17T20:56:47.363Z,8.43
2023-01-17T20:58:51.974Z,8.45
2023-01-17T21:00:55.973Z,8.45
2023-01-17T21:02:58.776Z,8.46
2023-01-17T21:05:03.601Z,8.45
2023-01-17T21:07:06.753Z,8.43
2023-01-17T21:09:19.136Z,8.39
2023-01-17T21:11:24.203Z,8.32
2023-01-17T21:13:27.708Z,8.30
2023-01-17T21:15:32.064Z,8.31
2023-01-17T21:17:35.988Z,8.28
2023-01-17T21:19:38.659Z,8.26
2023-01-17T21:21:41.439Z,8.25
2023-01-17T21:23:45.110Z,8.18
2023-01-17T21:26:06.294Z,8.16
2023-01-17T21:28:08.925Z,8.19
2023-01-17T21:30:13.135Z,8.15
2023-01-17T21:32:17.314Z,8.18
2023-01-17T21:34:20.074Z,8.21
2023-01-17T21:36:25.098Z,8.21
2023-01-17T21:38:27.779Z,8.23
2023-01-17T21:40:30.485Z,8.20
2023-01-17T21:42:33.258Z,8.23
2023-01-17T21:44:37.908Z,8.21
2023-01-17T21:46:41.935Z,8.22
2023-01-17T21:48:46.289Z,8.24
2023-01-17T21:50:52.515Z,8.28
2023-01-17T21:52:55.248Z,8.29
2023-01-17T21:55:27.106Z,8.29
2023-01-17T21:57:49.428Z,8.30
2023-01-17T21:59:52.359Z,8.32
2023-01-17T22:01:55.080Z,8.30
2023-01-17T22:04:01.162Z,8.29
2023-01-17T22:06:04.883Z,8.29
2023-01-17T22:08:15.153Z,8.33
2023-01-17T22:10:26.851Z,8.34
2023-01-17T22:12:33.467Z,8.32
2023-01-17T22:14:39.749Z,8.28
2023-01-17T22:16:43.941Z,8.26
2023-01-17T22:18:47.402Z,8.26
2023-01-17T22:20:51.628Z,8.28
2023-01-17T22:22:54.738Z,8.30
2023-01-17T22:24:57.569Z,8.32
2023-01-17T22:27:00.475Z,8.30
2023-01-17T22:29:04.342Z,8.29
2023-01-17T22:31:10.694Z,8.32
2023-01-17T22:33:23.405Z,8.32
2023-01-17T22:35:26.798Z,8.32
2023-01-17T22:37:30.994Z,8.35
2023-01-17T22:39:33.618Z,8.37
2023-01-17T22:41:39.425Z,8.37
2023-01-17T22:43:44.573Z,8.39
2023-01-17T22:45:47.275Z,8.39
2023-01-17T22:47:50.075Z,8.38
2023-01-17T22:49:52.693Z,8.42
